sensor_id;sensor_type;location;lat;lon;timestamp;P1;durP1;ratioP1;P2;durP2;ratioP2
34836;SDS011;21053;50.848;4.652;2023-03-14T00:02:59;6.95;;;1.40;;
34836;SDS011;21053;50.848;4.652;2023-03-14T00:05:28;12.07;;;1.90;;
34836;SDS011;21053;50.848;4.652;2023-03-14T00:07:53;10.93;;;1.80;;
34836;SDS011;21053;50.848;4.652;2023-03-14T00:10:22;13.77;;;2.38;;
34836;SDS011;21053;50.848;4.652;2023-03-14T00:12:51;14.18;;;1.92;;
34836;SDS011;21053;50.848;4.652;2023-03-14T00:15:16;12.05;;;1.80;;
34836;SDS011;21053;50.848;4.652;2023-03-14T00:17:48;13.57;;;2.10;;
34836;SDS011;21053;50.848;4.652;2023-03-14T00:22:47;12.52;;;2.15;;
34836;SDS011;21053;50.848;4.652;2023-03-14T00:27:44;12.85;;;2.25;;
34836;SDS011;21053;50.848;4.652;2023-03-14T00:30:16;12.73;;;2.03;;
34836;SDS011;21053;50.848;4.652;2023-03-14T00:32:42;9.77;;;2.00;;
34836;SDS011;21053;50.848;4.652;2023-03-14T00:35:14;16.02;;;2.17;;
34836;SDS011;21053;50.848;4.652;2023-03-14T00:37:41;17.45;;;2.60;;
34836;SDS011;21053;50.848;4.652;2023-03-14T00:40:13;16.88;;;2.35;;
34836;SDS011;21053;50.848;4.652;2023-03-14T00:42:38;12.88;;;1.98;;
34836;SDS011;21053;50.848;4.652;2023-03-14T00:47:37;21.40;;;2.42;;
34836;SDS011;21053;50.848;4.652;2023-03-14T00:52:38;14.00;;;2.60;;
34836;SDS011;21053;50.848;4.652;2023-03-14T00:55:04;13.38;;;2.47;;
34836;SDS011;21053;50.848;4.652;2023-03-14T01:00:01;12.02;;;2.13;;
34836;SDS011;21053;50.848;4.652;2023-03-14T01:05:02;17.35;;;2.58;;
34836;SDS011;21053;50.848;4.652;2023-03-14T01:07:30;14.18;;;2.05;;
34836;SDS011;21053;50.848;4.652;2023-03-14T01:12:25;17.00;;;2.10;;
34836;SDS011;21053;50.848;4.652;2023-03-14T01:14:55;18.58;;;2.25;;
34836;SDS011;21053;50.848;4.652;2023-03-14T01:19:52;19.90;;;2.67;;
34836;SDS011;21053;50.848;4.652;2023-03-14T01:24:48;25.10;;;2.45;;
34836;SDS011;21053;50.848;4.652;2023-03-14T01:27:16;13.18;;;2.42;;
34836;SDS011;21053;50.848;4.652;2023-03-14T01:29:44;14.38;;;2.67;;
34836;SDS011;21053;50.848;4.652;2023-03-14T01:32:13;23.73;;;2.90;;
34836;SDS011;21053;50.848;4.652;2023-03-14T01:34:39;19.38;;;3.00;;
34836;SDS011;21053;50.848;4.652;2023-03-14T01:37:06;16.65;;;2.40;;
34836;SDS011;21053;50.848;4.652;2023-03-14T01:39:36;12.35;;;2.00;;
34836;SDS011;21053;50.848;4.652;2023-03-14T01:42:02;13.20;;;2.80;;
34836;SDS011;21053;50.848;4.652;2023-03-14T01:49:46;21.50;;;2.83;;
34836;SDS011;21053;50.848;4.652;2023-03-14T01:52:35;11.65;;;2.40;;
34836;SDS011;21053;50.848;4.652;2023-03-14T02:00:33;12.65;;;2.00;;
34836;SDS011;21053;50.848;4.652;2023-03-14T02:03:02;8.90;;;2.00;;
34836;SDS011;21053;50.848;4.652;2023-03-14T02:05:38;13.38;;;2.10;;
34836;SDS011;21053;50.848;4.652;2023-03-14T02:10:43;12.73;;;2.15;;
34836;SDS011;21053;50.848;4.652;2023-03-14T02:13:14;8.85;;;1.85;;
34836;SDS011;21053;50.848;4.652;2023-03-14T02:15:43;8.48;;;1.77;;
34836;SDS011;21053;50.848;4.652;2023-03-14T02:18:10;12.57;;;2.17;;
34836;SDS011;21053;50.848;4.652;2023-03-14T02:20:44;17.50;;;2.67;;
34836;SDS011;21053;50.848;4.652;2023-03-14T02:23:15;10.20;;;1.92;;
34836;SDS011;21053;50.848;4.652;2023-03-14T02:28:21;10.02;;;1.65;;
34836;SDS011;21053;50.848;4.652;2023-03-14T02:33:19;4.38;;;1.48;;
34836;SDS011;21053;50.848;4.652;2023-03-14T02:35:52;9.43;;;1.55;;
34836;SDS011;21053;50.848;4.652;2023-03-14T02:41:19;5.57;;;1.35;;
34836;SDS011;21053;50.848;4.652;2023-03-14T02:43:44;10.10;;;1.30;;
34836;SDS011;21053;50.848;4.652;2023-03-14T02:46:14;8.13;;;1.50;;
34836;SDS011;21053;50.848;4.652;2023-03-14T02:48:53;13.80;;;1.40;;
34836;SDS011;21053;50.848;4.652;2023-03-14T02:51:26;8.32;;;1.35;;
34836;SDS011;21053;50.848;4.652;2023-03-14T02:53:53;7.40;;;1.27;;
34836;SDS011;21053;50.848;4.652;2023-03-14T02:58:47;7.25;;;1.42;;
34836;SDS011;21053;50.848;4.652;2023-03-14T03:03:45;7.28;;;1.30;;
34836;SDS011;21053;50.848;4.652;2023-03-14T03:08:43;12.95;;;1.67;;
34836;SDS011;21053;50.848;4.652;2023-03-14T03:13:40;10.68;;;1.83;;
34836;SDS011;21053;50.848;4.652;2023-03-14T03:16:06;7.78;;;1.77;;
34836;SDS011;21053;50.848;4.652;2023-03-14T03:23:31;9.75;;;2.03;;
34836;SDS011;21053;50.848;4.652;2023-03-14T03:25:58;12.40;;;2.30;;
34836;SDS011;21053;50.848;4.652;2023-03-14T03:28:27;13.48;;;2.10;;
34836;SDS011;21053;50.848;4.652;2023-03-14T03:33:21;11.85;;;2.35;;
34836;SDS011;21053;50.848;4.652;2023-03-14T03:35:51;20.48;;;2.33;;
34836;SDS011;21053;50.848;4.652;2023-03-14T03:38:20;16.30;;;2.20;;
34836;SDS011;21053;50.848;4.652;2023-03-14T03:40:49;10.15;;;2.38;;
34836;SDS011;21053;50.848;4.652;2023-03-14T03:43:14;18.92;;;2.85;;
34836;SDS011;21053;50.848;4.652;2023-03-14T03:45:43;10.93;;;2.78;;
34836;SDS011;21053;50.848;4.652;2023-03-14T03:48:10;20.83;;;3.00;;
34836;SDS011;21053;50.848;4.652;2023-03-14T03:50:43;15.40;;;2.42;;
34836;SDS011;21053;50.848;4.652;2023-03-14T03:53:15;10.88;;;2.50;;
34836;SDS011;21053;50.848;4.652;2023-03-14T03:55:43;10.20;;;2.40;;
34836;SDS011;21053;50.848;4.652;2023-03-14T03:58:12;16.73;;;2.65;;
34836;SDS011;21053;50.848;4.652;2023-03-14T04:03:09;15.52;;;2.75;;
34836;SDS011;21053;50.848;4.652;2023-03-14T04:08:36;12.95;;;2.22;;
34836;SDS011;21053;50.848;4.652;2023-03-14T04:13:32;16.35;;;2.75;;
34836;SDS011;21053;50.848;4.652;2023-03-14T04:15:59;16.48;;;2.92;;
34836;SDS011;21053;50.848;4.652;2023-03-14T04:18:25;8.25;;;1.85;;
34836;SDS011;21053;50.848;4.652;2023-03-14T04:20:52;14.80;;;2.70;;
34836;SDS011;21053;50.848;4.652;2023-03-14T04:23:22;12.93;;;2.58;;
34836;SDS011;21053;50.848;4.652;2023-03-14T04:25:50;15.23;;;2.53;;
34836;SDS011;21053;50.848;4.652;2023-03-14T04:28:20;10.00;;;2.20;;
34836;SDS011;21053;50.848;4.652;2023-03-14T04:30:49;8.90;;;2.08;;
34836;SDS011;21053;50.848;4.652;2023-03-14T04:33:14;11.80;;;2.25;;
34836;SDS011;21053;50.848;4.652;2023-03-14T04:35:43;12.27;;;2.42;;
34836;SDS011;21053;50.848;4.652;2023-03-14T04:38:13;9.15;;;2.47;;
34836;SDS011;21053;50.848;4.652;2023-03-14T04:40:42;11.40;;;2.30;;
34836;SDS011;21053;50.848;4.652;2023-03-14T04:43:14;12.18;;;2.03;;
34836;SDS011;21053;50.848;4.652;2023-03-14T04:45:46;13.43;;;2.10;;
34836;SDS011;21053;50.848;4.652;2023-03-14T04:48:12;8.52;;;2.08;;
34836;SDS011;21053;50.848;4.652;2023-03-14T04:50:38;13.05;;;2.78;;
34836;SDS011;21053;50.848;4.652;2023-03-14T04:53:06;8.10;;;2.08;;
34836;SDS011;21053;50.848;4.652;2023-03-14T04:55:34;9.45;;;2.05;;
34836;SDS011;21053;50.848;4.652;2023-03-14T04:58:03;5.55;;;1.85;;
34836;SDS011;21053;50.848;4.652;2023-03-14T05:00:29;4.72;;;1.80;;
34836;SDS011;21053;50.848;4.652;2023-03-14T05:02:58;7.82;;;1.88;;
34836;SDS011;21053;50.848;4.652;2023-03-14T05:05:26;7.25;;;1.70;;
34836;SDS011;21053;50.848;4.652;2023-03-14T05:07:55;4.65;;;1.70;;
34836;SDS011;21053;50.848;4.652;2023-03-14T05:10:24;5.18;;;1.67;;
34836;SDS011;21053;50.848;4.652;2023-03-14T05:12:51;7.60;;;2.45;;
34836;SDS011;21053;50.848;4.652;2023-03-14T05:15:18;13.27;;;2.13;;
34836;SDS011;21053;50.848;4.652;2023-03-14T05:17:44;4.43;;;1.85;;
34836;SDS011;21053;50.848;4.652;2023-03-14T05:20:13;7.90;;;2.75;;
34836;SDS011;21053;50.848;4.652;2023-03-14T05:22:39;9.02;;;2.40;;
34836;SDS011;21053;50.848;4.652;2023-03-14T05:27:34;6.97;;;2.20;;
34836;SDS011;21053;50.848;4.652;2023-03-14T05:30:01;8.48;;;2.53;;
34836;SDS011;21053;50.848;4.652;2023-03-14T05:32:30;3.28;;;2.15;;
34836;SDS011;21053;50.848;4.652;2023-03-14T05:34:59;6.32;;;2.20;;
34836;SDS011;21053;50.848;4.652;2023-03-14T05:37:25;4.28;;;2.45;;
34836;SDS011;21053;50.848;4.652;2023-03-14T05:42:23;25.77;;;4.15;;
34836;SDS011;21053;50.848;4.652;2023-03-14T05:44:48;4.10;;;2.25;;
34836;SDS011;21053;50.848;4.652;2023-03-14T05:49:49;4.97;;;2.30;;
34836;SDS011;21053;50.848;4.652;2023-03-14T05:52:17;4.65;;;2.72;;
34836;SDS011;21053;50.848;4.652;2023-03-14T05:54:45;7.28;;;3.63;;
34836;SDS011;21053;50.848;4.652;2023-03-14T05:57:13;6.40;;;2.75;;
34836;SDS011;21053;50.848;4.652;2023-03-14T06:04:39;8.95;;;3.88;;
34836;SDS011;21053;50.848;4.652;2023-03-14T06:07:08;10.55;;;4.30;;
34836;SDS011;21053;50.848;4.652;2023-03-14T06:09:37;7.30;;;4.38;;
34836;SDS011;21053;50.848;4.652;2023-03-14T06:12:05;9.10;;;4.80;;
34836;SDS011;21053;50.848;4.652;2023-03-14T06:14:33;12.82;;;4.97;;
34836;SDS011;21053;50.848;4.652;2023-03-14T06:17:01;10.57;;;4.63;;
34836;SDS011;21053;50.848;4.652;2023-03-14T06:19:28;11.50;;;4.68;;
34836;SDS011;21053;50.848;4.652;2023-03-14T06:21:56;10.95;;;5.20;;
34836;SDS011;21053;50.848;4.652;2023-03-14T06:24:24;12.13;;;5.28;;
34836;SDS011;21053;50.848;4.652;2023-03-14T06:26:52;8.32;;;5.10;;
34836;SDS011;21053;50.848;4.652;2023-03-14T06:31:47;13.05;;;6.35;;
34836;SDS011;21053;50.848;4.652;2023-03-14T06:34:14;13.98;;;5.40;;
34836;SDS011;21053;50.848;4.652;2023-03-14T06:36:40;8.77;;;5.30;;
34836;SDS011;21053;50.848;4.652;2023-03-14T06:39:09;11.93;;;5.25;;
34836;SDS011;21053;50.848;4.652;2023-03-14T06:41:38;13.00;;;5.85;;
34836;SDS011;21053;50.848;4.652;2023-03-14T06:44:04;8.52;;;5.13;;
34836;SDS011;21053;50.848;4.652;2023-03-14T06:48:59;8.90;;;4.32;;
34836;SDS011;21053;50.848;4.652;2023-03-14T06:51:26;9.57;;;4.53;;
34836;SDS011;21053;50.848;4.652;2023-03-14T06:53:52;4.63;;;3.40;;
34836;SDS011;21053;50.848;4.652;2023-03-14T06:56:18;6.68;;;3.53;;
34836;SDS011;21053;50.848;4.652;2023-03-14T06:58:45;4.43;;;2.75;;
34836;SDS011;21053;50.848;4.652;2023-03-14T07:01:31;2.97;;;2.13;;
34836;SDS011;21053;50.848;4.652;2023-03-14T07:04:03;4.18;;;2.38;;
34836;SDS011;21053;50.848;4.652;2023-03-14T07:09:02;4.82;;;1.55;;
34836;SDS011;21053;50.848;4.652;2023-03-14T07:14:00;1.13;;;1.02;;
34836;SDS011;21053;50.848;4.652;2023-03-14T07:16:31;2.45;;;1.33;;
34836;SDS011;21053;50.848;4.652;2023-03-14T07:18:59;2.90;;;1.40;;
34836;SDS011;21053;50.848;4.652;2023-03-14T07:21:29;3.65;;;1.60;;
34836;SDS011;21053;50.848;4.652;2023-03-14T07:23:57;4.13;;;1.60;;
34836;SDS011;21053;50.848;4.652;2023-03-14T07:26:25;5.28;;;1.55;;
34836;SDS011;21053;50.848;4.652;2023-03-14T07:28:54;2.53;;;1.60;;
34836;SDS011;21053;50.848;4.652;2023-03-14T07:31:21;4.35;;;1.77;;
34836;SDS011;21053;50.848;4.652;2023-03-14T07:33:49;6.40;;;1.88;;
34836;SDS011;21053;50.848;4.652;2023-03-14T07:38:47;9.27;;;2.33;;
34836;SDS011;21053;50.848;4.652;2023-03-14T07:41:16;4.40;;;2.40;;
34836;SDS011;21053;50.848;4.652;2023-03-14T07:43:42;11.52;;;3.10;;
34836;SDS011;21053;50.848;4.652;2023-03-14T07:48:39;9.23;;;3.05;;
34836;SDS011;21053;50.848;4.652;2023-03-14T07:51:08;7.35;;;2.53;;
34836;SDS011;21053;50.848;4.652;2023-03-14T07:53:36;9.68;;;2.78;;
34836;SDS011;21053;50.848;4.652;2023-03-14T07:58:30;10.98;;;2.92;;
34836;SDS011;21053;50.848;4.652;2023-03-14T08:03:28;7.18;;;2.33;;
34836;SDS011;21053;50.848;4.652;2023-03-14T08:08:25;4.35;;;2.35;;
34836;SDS011;21053;50.848;4.652;2023-03-14T08:15:52;8.90;;;2.60;;
34836;SDS011;21053;50.848;4.652;2023-03-14T08:18:21;7.60;;;2.53;;
34836;SDS011;21053;50.848;4.652;2023-03-14T08:20:47;4.15;;;2.40;;
34836;SDS011;21053;50.848;4.652;2023-03-14T08:23:15;8.13;;;2.72;;
34836;SDS011;21053;50.848;4.652;2023-03-14T08:25:42;14.50;;;2.90;;
34836;SDS011;21053;50.848;4.652;2023-03-14T08:28:08;5.38;;;2.05;;
34836;SDS011;21053;50.848;4.652;2023-03-14T08:30:34;6.63;;;2.25;;
34836;SDS011;21053;50.848;4.652;2023-03-14T08:33:00;4.90;;;2.13;;
34836;SDS011;21053;50.848;4.652;2023-03-14T08:36:29;6.93;;;2.30;;
34836;SDS011;21053;50.848;4.652;2023-03-14T08:38:56;5.72;;;2.60;;
34836;SDS011;21053;50.848;4.652;2023-03-14T08:46:21;5.90;;;3.20;;
34836;SDS011;21053;50.848;4.652;2023-03-14T08:48:49;11.73;;;3.97;;
34836;SDS011;21053;50.848;4.652;2023-03-14T08:51:18;12.90;;;4.15;;
34836;SDS011;21053;50.848;4.652;2023-03-14T08:53:44;14.02;;;4.28;;
34836;SDS011;21053;50.848;4.652;2023-03-14T08:56:11;4.85;;;3.45;;
34836;SDS011;21053;50.848;4.652;2023-03-14T08:58:38;7.80;;;4.00;;
34836;SDS011;21053;50.848;4.652;2023-03-14T09:01:05;6.97;;;3.47;;
34836;SDS011;21053;50.848;4.652;2023-03-14T09:03:34;8.15;;;3.50;;
34836;SDS011;21053;50.848;4.652;2023-03-14T09:06:03;7.18;;;3.30;;
34836;SDS011;21053;50.848;4.652;2023-03-14T09:08:31;10.20;;;3.63;;
34836;SDS011;21053;50.848;4.652;2023-03-14T09:10:59;5.90;;;3.55;;
34836;SDS011;21053;50.848;4.652;2023-03-14T09:13:25;17.90;;;3.70;;
34836;SDS011;21053;50.848;4.652;2023-03-14T09:15:51;6.43;;;3.47;;
34836;SDS011;21053;50.848;4.652;2023-03-14T09:18:18;15.55;;;4.72;;
34836;SDS011;21053;50.848;4.652;2023-03-14T09:20:44;9.90;;;4.40;;
34836;SDS011;21053;50.848;4.652;2023-03-14T09:23:13;14.18;;;4.05;;
34836;SDS011;21053;50.848;4.652;2023-03-14T09:25:40;13.25;;;4.13;;
34836;SDS011;21053;50.848;4.652;2023-03-14T09:28:08;10.15;;;4.47;;
34836;SDS011;21053;50.848;4.652;2023-03-14T09:30:37;8.48;;;3.85;;
34836;SDS011;21053;50.848;4.652;2023-03-14T09:33:05;9.07;;;3.80;;
34836;SDS011;21053;50.848;4.652;2023-03-14T09:35:33;5.70;;;3.53;;
34836;SDS011;21053;50.848;4.652;2023-03-14T09:38:02;8.40;;;3.22;;
34836;SDS011;21053;50.848;4.652;2023-03-14T09:40:31;7.07;;;3.70;;
34836;SDS011;21053;50.848;4.652;2023-03-14T09:43:08;7.07;;;3.75;;
34836;SDS011;21053;50.848;4.652;2023-03-14T09:48:14;14.13;;;4.45;;
34836;SDS011;21053;50.848;4.652;2023-03-14T09:50:46;8.50;;;3.72;;
34836;SDS011;21053;50.848;4.652;2023-03-14T09:53:26;10.90;;;4.00;;
34836;SDS011;21053;50.848;4.652;2023-03-14T09:56:00;14.45;;;4.05;;
34836;SDS011;21053;50.848;4.652;2023-03-14T09:58:27;16.42;;;3.83;;
34836;SDS011;21053;50.848;4.652;2023-03-14T10:00:55;24.80;;;3.60;;
34836;SDS011;21053;50.848;4.652;2023-03-14T10:05:56;16.77;;;3.75;;
34836;SDS011;21053;50.848;4.652;2023-03-14T10:08:26;11.02;;;3.83;;
34836;SDS011;21053;50.848;4.652;2023-03-14T10:10:54;15.23;;;3.72;;
34836;SDS011;21053;50.848;4.652;2023-03-14T10:13:24;12.55;;;4.03;;
34836;SDS011;21053;50.848;4.652;2023-03-14T10:15:59;16.40;;;3.58;;
34836;SDS011;21053;50.848;4.652;2023-03-14T10:18:29;18.40;;;3.47;;
34836;SDS011;21053;50.848;4.652;2023-03-14T10:21:05;11.40;;;3.67;;
34836;SDS011;21053;50.848;4.652;2023-03-14T10:23:41;12.85;;;3.75;;
34836;SDS011;21053;50.848;4.652;2023-03-14T10:26:12;16.17;;;3.55;;
34836;SDS011;21053;50.848;4.652;2023-03-14T10:29:01;15.27;;;3.40;;
34836;SDS011;21053;50.848;4.652;2023-03-14T10:31:35;18.67;;;3.90;;
34836;SDS011;21053;50.848;4.652;2023-03-14T10:34:23;15.85;;;4.10;;
34836;SDS011;21053;50.848;4.652;2023-03-14T10:37:14;18.25;;;3.30;;
34836;SDS011;21053;50.848;4.652;2023-03-14T10:39:51;10.98;;;2.78;;
34836;SDS011;21053;50.848;4.652;2023-03-14T10:44:55;10.00;;;3.00;;
34836;SDS011;21053;50.848;4.652;2023-03-14T10:47:50;6.30;;;2.58;;
34836;SDS011;21053;50.848;4.652;2023-03-14T10:50:27;12.45;;;2.58;;
34836;SDS011;21053;50.848;4.652;2023-03-14T10:52:56;15.55;;;3.03;;
34836;SDS011;21053;50.848;4.652;2023-03-14T10:55:59;13.23;;;2.75;;
34836;SDS011;21053;50.848;4.652;2023-03-14T10:58:20;9.68;;;2.50;;
34836;SDS011;21053;50.848;4.652;2023-03-14T11:01:05;7.43;;;2.00;;
34836;SDS011;21053;50.848;4.652;2023-03-14T11:06:21;7.87;;;1.77;;
34836;SDS011;21053;50.848;4.652;2023-03-14T11:11:48;5.72;;;2.03;;
34836;SDS011;21053;50.848;4.652;2023-03-14T11:14:34;8.07;;;2.00;;
34836;SDS011;21053;50.848;4.652;2023-03-14T11:17:12;11.18;;;2.38;;
34836;SDS011;21053;50.848;4.652;2023-03-14T11:20:01;6.28;;;1.98;;
34836;SDS011;21053;50.848;4.652;2023-03-14T11:23:11;6.25;;;1.80;;
34836;SDS011;21053;50.848;4.652;2023-03-14T11:28:57;4.00;;;1.70;;
34836;SDS011;21053;50.848;4.652;2023-03-14T11:39:44;8.15;;;1.75;;
34836;SDS011;21053;50.848;4.652;2023-03-14T11:44:45;4.60;;;1.45;;
34836;SDS011;21053;50.848;4.652;2023-03-14T11:47:24;10.40;;;1.33;;
34836;SDS011;21053;50.848;4.652;2023-03-14T11:52:50;4.38;;;1.15;;
34836;SDS011;21053;50.848;4.652;2023-03-14T11:55:24;6.40;;;1.80;;
34836;SDS011;21053;50.848;4.652;2023-03-14T12:02:59;3.58;;;1.20;;
34836;SDS011;21053;50.848;4.652;2023-03-14T12:08:55;3.67;;;1.10;;
34836;SDS011;21053;50.848;4.652;2023-03-14T12:11:32;5.00;;;1.20;;
34836;SDS011;21053;50.848;4.652;2023-03-14T12:16:52;1.70;;;1.10;;
34836;SDS011;21053;50.848;4.652;2023-03-14T12:19:29;0.95;;;0.93;;
34836;SDS011;21053;50.848;4.652;2023-03-14T12:22:16;4.10;;;1.20;;
34836;SDS011;21053;50.848;4.652;2023-03-14T12:28:02;2.97;;;1.20;;
34836;SDS011;21053;50.848;4.652;2023-03-14T12:30:05;3.50;;;1.33;;
34836;SDS011;21053;50.848;4.652;2023-03-14T12:35:46;2.88;;;1.45;;
34836;SDS011;21053;50.848;4.652;2023-03-14T12:38:28;3.60;;;1.15;;
34836;SDS011;21053;50.848;4.652;2023-03-14T12:43:48;2.53;;;1.63;;
34836;SDS011;21053;50.848;4.652;2023-03-14T12:46:19;3.17;;;1.73;;
34836;SDS011;21053;50.848;4.652;2023-03-14T12:49:04;4.50;;;1.80;;
34836;SDS011;21053;50.848;4.652;2023-03-14T12:51:36;6.68;;;1.83;;
34836;SDS011;21053;50.848;4.652;2023-03-14T13:10:28;7.15;;;2.08;;
34836;SDS011;21053;50.848;4.652;2023-03-14T13:13:20;4.13;;;1.63;;
34836;SDS011;21053;50.848;4.652;2023-03-14T13:21:22;11.35;;;2.10;;
34836;SDS011;21053;50.848;4.652;2023-03-14T13:26:57;6.43;;;2.22;;
34836;SDS011;21053;50.848;4.652;2023-03-14T13:29:30;6.05;;;1.92;;
34836;SDS011;21053;50.848;4.652;2023-03-14T13:31:58;3.10;;;2.05;;
34836;SDS011;21053;50.848;4.652;2023-03-14T13:34:26;5.85;;;1.70;;
34836;SDS011;21053;50.848;4.652;2023-03-14T13:36:55;5.63;;;2.00;;
34836;SDS011;21053;50.848;4.652;2023-03-14T13:39:23;6.00;;;1.90;;
34836;SDS011;21053;50.848;4.652;2023-03-14T13:41:52;7.75;;;2.00;;
34836;SDS011;21053;50.848;4.652;2023-03-14T13:44:35;3.28;;;1.90;;
34836;SDS011;21053;50.848;4.652;2023-03-14T13:47:05;3.50;;;1.98;;
34836;SDS011;21053;50.848;4.652;2023-03-14T13:55:02;5.47;;;2.47;;
34836;SDS011;21053;50.848;4.652;2023-03-14T13:57:43;4.85;;;2.13;;
34836;SDS011;21053;50.848;4.652;2023-03-14T14:00:23;3.67;;;1.83;;
34836;SDS011;21053;50.848;4.652;2023-03-14T14:02:52;5.05;;;2.45;;
34836;SDS011;21053;50.848;4.652;2023-03-14T14:05:26;3.55;;;1.70;;
34836;SDS011;21053;50.848;4.652;2023-03-14T14:07:54;3.72;;;1.77;;
34836;SDS011;21053;50.848;4.652;2023-03-14T14:10:22;4.50;;;1.98;;
34836;SDS011;21053;50.848;4.652;2023-03-14T14:12:57;7.68;;;1.98;;
34836;SDS011;21053;50.848;4.652;2023-03-14T14:15:28;14.77;;;2.78;;
34836;SDS011;21053;50.848;4.652;2023-03-14T14:17:57;8.90;;;2.30;;
34836;SDS011;21053;50.848;4.652;2023-03-14T14:20:49;13.40;;;2.80;;
34836;SDS011;21053;50.848;4.652;2023-03-14T14:23:29;10.48;;;2.05;;
34836;SDS011;21053;50.848;4.652;2023-03-14T14:25:56;6.53;;;1.80;;
34836;SDS011;21053;50.848;4.652;2023-03-14T14:28:35;7.97;;;2.13;;
34836;SDS011;21053;50.848;4.652;2023-03-14T14:31:05;10.05;;;2.42;;
34836;SDS011;21053;50.848;4.652;2023-03-14T14:33:44;12.88;;;2.58;;
34836;SDS011;21053;50.848;4.652;2023-03-14T14:36:39;17.25;;;3.40;;
34836;SDS011;21053;50.848;4.652;2023-03-14T14:39:17;13.77;;;2.40;;
34836;SDS011;21053;50.848;4.652;2023-03-14T14:41:48;14.43;;;2.80;;
34836;SDS011;21053;50.848;4.652;2023-03-14T14:44:17;22.25;;;3.15;;
34836;SDS011;21053;50.848;4.652;2023-03-14T14:49:31;28.58;;;3.33;;
34836;SDS011;21053;50.848;4.652;2023-03-14T14:52:02;21.75;;;3.38;;
34836;SDS011;21053;50.848;4.652;2023-03-14T14:54:47;18.88;;;3.33;;
34836;SDS011;21053;50.848;4.652;2023-03-14T14:59:48;27.80;;;4.30;;
34836;SDS011;21053;50.848;4.652;2023-03-14T15:07:58;4.80;;;1.70;;
34836;SDS011;21053;50.848;4.652;2023-03-14T15:12:54;7.50;;;1.92;;
34836;SDS011;21053;50.848;4.652;2023-03-14T15:15:22;9.48;;;2.20;;
34836;SDS011;21053;50.848;4.652;2023-03-14T15:17:49;7.78;;;1.88;;
34836;SDS011;21053;50.848;4.652;2023-03-14T15:22:47;16.38;;;2.97;;
34836;SDS011;21053;50.848;4.652;2023-03-14T15:25:14;12.77;;;2.35;;
34836;SDS011;21053;50.848;4.652;2023-03-14T15:27:43;5.93;;;2.03;;
34836;SDS011;21053;50.848;4.652;2023-03-14T15:30:18;9.52;;;2.20;;
34836;SDS011;21053;50.848;4.652;2023-03-14T15:32:49;6.40;;;2.30;;
34836;SDS011;21053;50.848;4.652;2023-03-14T15:35:15;8.13;;;1.70;;
34836;SDS011;21053;50.848;4.652;2023-03-14T15:43:17;8.85;;;2.08;;
34836;SDS011;21053;50.848;4.652;2023-03-14T15:45:44;6.88;;;1.70;;
34836;SDS011;21053;50.848;4.652;2023-03-14T15:48:15;6.00;;;1.92;;
34836;SDS011;21053;50.848;4.652;2023-03-14T15:50:43;20.77;;;2.35;;
34836;SDS011;21053;50.848;4.652;2023-03-14T15:53:10;8.57;;;1.42;;
34836;SDS011;21053;50.848;4.652;2023-03-14T15:58:09;8.52;;;1.50;;
34836;SDS011;21053;50.848;4.652;2023-03-14T16:00:45;4.38;;;1.80;;
34836;SDS011;21053;50.848;4.652;2023-03-14T16:03:10;8.73;;;1.90;;
34836;SDS011;21053;50.848;4.652;2023-03-14T16:05:40;7.93;;;1.60;;
34836;SDS011;21053;50.848;4.652;2023-03-14T16:08:07;6.93;;;1.33;;
34836;SDS011;21053;50.848;4.652;2023-03-14T16:10:35;13.93;;;1.70;;
34836;SDS011;21053;50.848;4.652;2023-03-14T16:13:04;4.35;;;1.40;;
34836;SDS011;21053;50.848;4.652;2023-03-14T16:15:33;10.85;;;1.80;;
34836;SDS011;21053;50.848;4.652;2023-03-14T16:20:28;3.22;;;1.38;;
34836;SDS011;21053;50.848;4.652;2023-03-14T16:22:56;5.43;;;1.45;;
34836;SDS011;21053;50.848;4.652;2023-03-14T16:25:23;10.05;;;2.00;;
34836;SDS011;21053;50.848;4.652;2023-03-14T16:27:51;7.72;;;1.88;;
34836;SDS011;21053;50.848;4.652;2023-03-14T16:30:19;7.80;;;2.10;;
34836;SDS011;21053;50.848;4.652;2023-03-14T16:32:48;11.07;;;1.70;;
34836;SDS011;21053;50.848;4.652;2023-03-14T16:35:14;16.55;;;2.17;;
34836;SDS011;21053;50.848;4.652;2023-03-14T16:37:42;14.68;;;3.03;;
34836;SDS011;21053;50.848;4.652;2023-03-14T16:40:08;16.35;;;3.28;;
34836;SDS011;21053;50.848;4.652;2023-03-14T16:42:36;25.15;;;3.90;;
34836;SDS011;21053;50.848;4.652;2023-03-14T16:45:02;20.40;;;3.47;;
34836;SDS011;21053;50.848;4.652;2023-03-14T16:50:00;17.10;;;3.28;;
34836;SDS011;21053;50.848;4.652;2023-03-14T16:52:30;18.00;;;2.75;;
34836;SDS011;21053;50.848;4.652;2023-03-14T16:54:55;22.05;;;3.78;;
34836;SDS011;21053;50.848;4.652;2023-03-14T16:59:51;25.33;;;3.35;;
34836;SDS011;21053;50.848;4.652;2023-03-14T17:02:19;16.45;;;3.83;;
34836;SDS011;21053;50.848;4.652;2023-03-14T17:04:47;22.00;;;2.97;;
34836;SDS011;21053;50.848;4.652;2023-03-14T17:09:46;17.83;;;4.40;;
34836;SDS011;21053;50.848;4.652;2023-03-14T17:14:44;31.25;;;7.97;;
34836;SDS011;21053;50.848;4.652;2023-03-14T17:17:16;22.52;;;4.78;;
34836;SDS011;21053;50.848;4.652;2023-03-14T17:22:12;27.70;;;3.92;;
34836;SDS011;21053;50.848;4.652;2023-03-14T17:24:41;20.48;;;3.50;;
34836;SDS011;21053;50.848;4.652;2023-03-14T17:27:09;27.33;;;4.20;;
34836;SDS011;21053;50.848;4.652;2023-03-14T17:29:35;22.08;;;3.80;;
34836;SDS011;21053;50.848;4.652;2023-03-14T17:34:31;24.45;;;4.68;;
34836;SDS011;21053;50.848;4.652;2023-03-14T17:39:28;21.55;;;3.05;;
34836;SDS011;21053;50.848;4.652;2023-03-14T17:41:56;15.02;;;3.53;;
34836;SDS011;21053;50.848;4.652;2023-03-14T17:44:25;21.95;;;3.10;;
34836;SDS011;21053;50.848;4.652;2023-03-14T17:49:23;23.20;;;2.90;;
34836;SDS011;21053;50.848;4.652;2023-03-14T17:51:50;14.50;;;2.40;;
34836;SDS011;21053;50.848;4.652;2023-03-14T17:54:29;18.10;;;2.90;;
34836;SDS011;21053;50.848;4.652;2023-03-14T17:56:57;20.25;;;3.05;;
34836;SDS011;21053;50.848;4.652;2023-03-14T17:59:26;18.50;;;3.17;;
34836;SDS011;21053;50.848;4.652;2023-03-14T18:01:54;25.67;;;4.10;;
34836;SDS011;21053;50.848;4.652;2023-03-14T18:04:22;28.25;;;2.95;;
34836;SDS011;21053;50.848;4.652;2023-03-14T18:08:59;18.65;;;2.80;;
34836;SDS011;21053;50.848;4.652;2023-03-14T18:13:57;20.15;;;2.65;;
34836;SDS011;21053;50.848;4.652;2023-03-14T18:16:28;14.27;;;2.53;;
34836;SDS011;21053;50.848;4.652;2023-03-14T18:18:55;15.57;;;2.58;;
34836;SDS011;21053;50.848;4.652;2023-03-14T18:21:27;23.38;;;2.55;;
34836;SDS011;21053;50.848;4.652;2023-03-14T18:24:01;16.02;;;2.25;;
34836;SDS011;21053;50.848;4.652;2023-03-14T18:28:58;14.88;;;2.83;;
34836;SDS011;21053;50.848;4.652;2023-03-14T18:31:26;13.38;;;2.50;;
34836;SDS011;21053;50.848;4.652;2023-03-14T18:33:55;25.92;;;7.60;;
34836;SDS011;21053;50.848;4.652;2023-03-14T18:36:21;44.65;;;10.30;;
34836;SDS011;21053;50.848;4.652;2023-03-14T18:38:49;51.50;;;14.35;;
34836;SDS011;21053;50.848;4.652;2023-03-14T18:41:26;41.72;;;11.38;;
34836;SDS011;21053;50.848;4.652;2023-03-14T18:43:55;36.10;;;9.25;;
34836;SDS011;21053;50.848;4.652;2023-03-14T18:46:24;26.52;;;7.78;;
34836;SDS011;21053;50.848;4.652;2023-03-14T18:48:54;25.05;;;7.15;;
34836;SDS011;21053;50.848;4.652;2023-03-14T18:51:26;23.27;;;6.13;;
34836;SDS011;21053;50.848;4.652;2023-03-14T18:53:55;20.83;;;4.13;;
34836;SDS011;21053;50.848;4.652;2023-03-14T18:56:27;19.45;;;3.28;;
34836;SDS011;21053;50.848;4.652;2023-03-14T18:58:56;16.92;;;3.75;;
34836;SDS011;21053;50.848;4.652;2023-03-14T19:01:25;26.33;;;3.95;;
34836;SDS011;21053;50.848;4.652;2023-03-14T19:03:57;11.35;;;3.33;;
34836;SDS011;21053;50.848;4.652;2023-03-14T19:06:23;10.77;;;3.55;;
34836;SDS011;21053;50.848;4.652;2023-03-14T19:08:52;18.90;;;4.07;;